createdAt,value
2018-06-19T00:02:17.193Z,25.30
2018-06-19T00:04:46.408Z,25.40
2018-06-19T00:07:15.466Z,25.30
2018-06-19T00:09:44.764Z,25.30
2018-06-19T00:12:14.145Z,25.30
2018-06-19T00:14:43.190Z,25.30
2018-06-19T00:17:12.349Z,25.30
2018-06-19T00:19:46.983Z,25.30
2018-06-19T00:22:16.237Z,25.30
2018-06-19T00:24:45.304Z,25.30
2018-06-19T00:27:14.466Z,25.30
2018-06-19T00:29:43.788Z,25.30
2018-06-19T00:32:13.061Z,25.30
2018-06-19T00:34:42.182Z,25.30
2018-06-19T00:37:11.316Z,25.30
2018-06-19T00:39:40.452Z,25.30
2018-06-19T00:42:09.711Z,25.30
2018-06-19T00:44:38.863Z,25.30
2018-06-19T00:47:08.080Z,25.30
2018-06-19T00:49:37.259Z,25.30
2018-06-19T00:52:06.407Z,25.30
2018-06-19T00:54:35.572Z,25.30
2018-06-19T00:57:04.765Z,25.30
2018-06-19T00:59:33.808Z,25.30
2018-06-19T01:02:02.979Z,25.30
2018-06-19T01:04:32.156Z,25.30
2018-06-19T01:07:01.228Z,25.30
2018-06-19T01:09:30.623Z,25.30
2018-06-19T01:11:59.743Z,25.30
2018-06-19T01:14:28.964Z,25.30
2018-06-19T01:16:58.114Z,25.30
2018-06-19T01:19:27.263Z,25.30
2018-06-19T01:21:56.381Z,25.30
2018-06-19T01:24:26.042Z,25.30
2018-06-19T01:26:55.276Z,25.30
2018-06-19T01:29:24.337Z,25.30
2018-06-19T01:31:53.664Z,25.30
2018-06-19T01:34:22.827Z,25.30
2018-06-19T01:36:52.027Z,25.20
2018-06-19T01:39:21.098Z,25.30
2018-06-19T01:41:50.279Z,25.30
2018-06-19T01:44:19.614Z,25.30
2018-06-19T01:46:48.815Z,25.30
2018-06-19T01:49:17.986Z,25.30
2018-06-19T01:51:47.267Z,25.30
2018-06-19T01:54:16.402Z,25.30
2018-06-19T01:56:45.548Z,25.30
2018-06-19T01:59:14.849Z,25.30
2018-06-19T02:01:44.142Z,25.30
2018-06-19T02:04:13.281Z,25.30
2018-06-19T02:06:42.503Z,25.30
2018-06-19T02:09:11.595Z,25.30
2018-06-19T02:11:40.823Z,25.30
2018-06-19T02:14:10.090Z,25.30
2018-06-19T02:16:39.201Z,25.30
2018-06-19T02:19:08.520Z,25.30
2018-06-19T02:21:37.654Z,25.30
2018-06-19T02:24:06.885Z,25.30
2018-06-19T02:26:36.049Z,25.30
2018-06-19T02:29:05.120Z,25.30
2018-06-19T02:31:34.320Z,25.30
2018-06-19T02:34:03.456Z,25.30
2018-06-19T02:36:32.545Z,25.30
2018-06-19T02:39:01.645Z,25.30
2018-06-19T02:41:30.898Z,25.30
2018-06-19T02:44:00.050Z,25.30
2018-06-19T02:46:29.207Z,25.30
2018-06-19T02:48:58.540Z,25.20
2018-06-19T02:51:28.050Z,25.30
2018-06-19T02:53:58.009Z,25.30
2018-06-19T02:56:27.178Z,25.30
2018-06-19T02:58:56.841Z,25.30
2018-06-19T03:01:25.953Z,25.30
2018-06-19T03:03:55.028Z,25.30
2018-06-19T03:06:24.230Z,25.30
2018-06-19T03:08:53.337Z,25.20
2018-06-19T03:11:22.482Z,25.30
2018-06-19T03:13:51.638Z,25.30
2018-06-19T03:16:20.785Z,25.30
2018-06-19T03:18:49.926Z,25.30
2018-06-19T03:21:25.520Z,25.20
2018-06-19T03:23:54.630Z,25.20
2018-06-19T03:26:23.788Z,25.30
2018-06-19T03:28:53.167Z,25.30
2018-06-19T03:31:22.430Z,25.30
2018-06-19T03:33:52.891Z,25.20
2018-06-19T03:36:21.955Z,25.30
2018-06-19T03:38:51.164Z,25.30
2018-06-19T03:41:20.347Z,25.30
2018-06-19T03:43:49.418Z,25.30
2018-06-19T03:46:18.568Z,25.30
2018-06-19T03:48:47.759Z,25.30
2018-06-19T03:51:16.835Z,25.30
2018-06-19T03:53:45.850Z,25.30
2018-06-19T03:56:15.011Z,25.30
2018-06-19T03:58:44.267Z,25.30
2018-06-19T04:01:13.369Z,25.30
2018-06-19T04:03:42.550Z,25.30
2018-06-19T04:06:11.590Z,25.30
2018-06-19T04:08:40.831Z,25.30
2018-06-19T04:11:09.986Z,25.30
2018-06-19T04:13:39.017Z,25.30
2018-06-19T04:16:08.164Z,25.30
2018-06-19T04:18:37.269Z,25.30
2018-06-19T04:21:06.467Z,25.30
2018-06-19T04:23:35.539Z,25.30
2018-06-19T04:26:04.662Z,25.30
2018-06-19T04:28:33.852Z,25.30
2018-06-19T04:31:02.968Z,25.30
2018-06-19T04:33:32.049Z,25.30
2018-06-19T04:36:01.141Z,25.30
2018-06-19T04:38:30.347Z,25.30
2018-06-19T04:40:59.547Z,25.30
2018-06-19T04:43:29.123Z,25.30
2018-06-19T04:45:58.246Z,25.30
2018-06-19T04:48:27.447Z,25.30
2018-06-19T04:50:56.653Z,25.30
2018-06-19T04:53:25.824Z,25.30
2018-06-19T04:55:55.012Z,25.30
2018-06-19T04:58:24.181Z,25.30
2018-06-19T05:00:53.408Z,25.30
2018-06-19T05:03:22.600Z,25.30
2018-06-19T05:05:51.789Z,25.40
2018-06-19T05:08:20.972Z,25.40
2018-06-19T05:10:50.323Z,25.40
2018-06-19T05:13:19.543Z,25.50
2018-06-19T05:15:48.683Z,25.50
2018-06-19T05:18:17.845Z,25.50
2018-06-19T05:20:47.076Z,25.60
2018-06-19T05:23:16.389Z,25.60
2018-06-19T05:25:45.463Z,25.60
2018-06-19T05:28:14.583Z,25.60
2018-06-19T05:30:43.739Z,25.60
2018-06-19T05:33:12.927Z,25.60
2018-06-19T05:35:42.218Z,25.60
2018-06-19T05:38:11.492Z,25.60
2018-06-19T05:40:40.606Z,25.60
2018-06-19T05:43:09.928Z,25.70
2018-06-19T05:45:39.188Z,25.60
2018-06-19T05:48:08.466Z,25.70
2018-06-19T05:50:37.721Z,25.60
2018-06-19T05:53:07.033Z,25.70
2018-06-19T05:55:38.150Z,24.80
2018-06-19T05:58:07.591Z,23.20
2018-06-19T06:00:37.289Z,22.10
2018-06-19T06:03:07.752Z,21.60
2018-06-19T06:05:37.121Z,21.20
2018-06-19T06:08:06.419Z,21.10
2018-06-19T06:10:37.082Z,21.20
2018-06-19T06:13:06.558Z,21.50
2018-06-19T06:15:35.730Z,21.60
2018-06-19T06:18:05.785Z,21.80
2018-06-19T06:20:35.521Z,21.90
2018-06-19T06:23:04.819Z,21.70
2018-06-19T06:25:34.119Z,22.00
2018-06-19T06:28:03.453Z,21.80
2018-06-19T06:30:32.842Z,21.70
2018-06-19T06:33:02.173Z,21.60
2018-06-19T06:35:31.305Z,21.80
2018-06-19T06:38:00.588Z,21.70
2018-06-19T06:40:29.839Z,21.70
2018-06-19T06:42:59.020Z,21.90
2018-06-19T06:45:28.267Z,21.90
2018-06-19T06:47:57.394Z,21.90
2018-06-19T06:50:26.829Z,21.80
2018-06-19T06:52:56.048Z,21.90
2018-06-19T06:55:25.221Z,21.90
2018-06-19T06:57:54.551Z,21.80
2018-06-19T07:00:23.840Z,21.50
2018-06-19T07:02:53.099Z,21.20
2018-06-19T07:05:22.520Z,21.40
2018-06-19T07:07:51.891Z,21.20
2018-06-19T07:10:21.030Z,21.30
2018-06-19T07:12:50.268Z,21.40
2018-06-19T07:15:19.943Z,21.50
2018-06-19T07:17:49.254Z,21.40
2018-06-19T07:20:18.846Z,21.40
2018-06-19T07:22:48.177Z,21.60
2018-06-19T07:25:17.458Z,21.90
2018-06-19T07:27:46.743Z,21.70
2018-06-19T07:30:15.955Z,21.70
2018-06-19T07:32:45.398Z,21.80
2018-06-19T07:35:14.758Z,22.00
2018-06-19T07:37:44.259Z,22.20
2018-06-19T07:40:13.496Z,22.00
2018-06-19T07:42:42.767Z,22.20
2018-06-19T07:45:12.058Z,22.00
2018-06-19T07:47:41.361Z,21.70
2018-06-19T07:50:11.289Z,21.80
2018-06-19T07:52:40.482Z,21.80
2018-06-19T07:55:09.788Z,21.80
2018-06-19T07:57:38.978Z,21.70
2018-06-19T08:00:08.077Z,21.80
2018-06-19T08:02:37.259Z,21.90
2018-06-19T08:05:06.426Z,22.20
2018-06-19T08:07:35.708Z,22.60
2018-06-19T08:10:04.875Z,22.80
2018-06-19T08:12:33.974Z,22.80
2018-06-19T08:15:03.201Z,22.70
2018-06-19T08:17:32.438Z,22.50
2018-06-19T08:20:01.667Z,22.60
2018-06-19T08:22:30.828Z,22.60
2018-06-19T08:25:00.002Z,22.70
2018-06-19T08:27:29.314Z,22.60
2018-06-19T08:29:58.696Z,22.60
2018-06-19T08:32:27.911Z,22.50
2018-06-19T08:34:57.143Z,22.50
2018-06-19T08:37:27.068Z,22.50
2018-06-19T08:39:56.371Z,22.50
2018-06-19T08:42:26.261Z,22.50
2018-06-19T08:44:55.410Z,22.50
2018-06-19T08:47:24.500Z,22.40
2018-06-19T08:49:53.868Z,22.30
2018-06-19T08:52:23.026Z,22.40
2018-06-19T08:54:52.539Z,22.40
2018-06-19T08:57:21.700Z,22.30
2018-06-19T08:59:50.959Z,22.20
2018-06-19T09:02:20.201Z,22.20
2018-06-19T09:04:49.530Z,22.20
2018-06-19T09:07:18.790Z,22.30
2018-06-19T09:09:48.107Z,22.50
2018-06-19T09:12:17.187Z,22.80
2018-06-19T09:14:46.426Z,22.90
2018-06-19T09:17:15.721Z,22.90
2018-06-19T09:19:44.948Z,22.90
2018-06-19T09:22:14.212Z,22.80
2018-06-19T09:24:43.339Z,22.90
2018-06-19T09:27:12.582Z,23.10
2018-06-19T09:29:41.910Z,23.10
2018-06-19T09:32:11.148Z,23.20
2018-06-19T09:34:40.506Z,23.20
2018-06-19T09:37:09.769Z,23.30
2018-06-19T09:39:39.056Z,23.30
2018-06-19T09:42:08.821Z,23.30
2018-06-19T09:44:38.139Z,23.50
2018-06-19T09:47:07.400Z,23.40
2018-06-19T09:49:36.640Z,23.30
2018-06-19T09:52:05.920Z,23.20
2018-06-19T09:54:35.354Z,23.30
2018-06-19T09:57:04.946Z,23.30
2018-06-19T09:59:34.156Z,23.40
2018-06-19T10:02:03.421Z,23.60
2018-06-19T10:04:32.952Z,23.80
2018-06-19T10:07:02.232Z,23.90
2018-06-19T10:09:31.587Z,23.80
2018-06-19T10:12:01.049Z,23.90
2018-06-19T10:14:30.271Z,23.90
2018-06-19T10:16:59.664Z,23.90
2018-06-19T10:19:28.882Z,23.90
2018-06-19T10:21:58.218Z,23.90
2018-06-19T10:24:27.469Z,23.90
2018-06-19T10:26:56.956Z,24.00
2018-06-19T10:29:26.143Z,24.10
2018-06-19T10:31:55.380Z,24.00
2018-06-19T10:34:24.600Z,23.80
2018-06-19T10:36:53.955Z,23.70
2018-06-19T10:39:23.164Z,23.80
2018-06-19T10:41:52.631Z,23.70
2018-06-19T10:44:21.906Z,23.70
2018-06-19T10:46:51.244Z,23.80
2018-06-19T10:49:20.595Z,23.80
2018-06-19T10:51:49.839Z,23.90
2018-06-19T10:54:18.994Z,24.00
2018-06-19T10:56:48.286Z,24.10
2018-06-19T10:59:17.559Z,24.10
2018-06-19T11:01:46.848Z,24.00
2018-06-19T11:04:16.202Z,23.90
2018-06-19T11:06:46.731Z,24.00
2018-06-19T11:09:15.867Z,24.20
2018-06-19T11:11:45.043Z,24.40
2018-06-19T11:14:14.539Z,24.50
2018-06-19T11:16:43.738Z,24.60
2018-06-19T11:19:12.937Z,24.60
2018-06-19T11:21:42.137Z,24.60
2018-06-19T11:24:11.322Z,24.50
2018-06-19T11:26:40.568Z,24.50
2018-06-19T11:29:09.859Z,24.60
2018-06-19T11:31:39.048Z,24.60
2018-06-19T11:34:08.263Z,24.60
2018-06-19T11:36:37.472Z,24.90
2018-06-19T11:39:10.770Z,25.00
2018-06-19T11:41:39.875Z,25.10
2018-06-19T11:44:09.181Z,24.90
2018-06-19T11:46:38.650Z,24.90
2018-06-19T11:49:07.802Z,24.90
2018-06-19T11:51:36.920Z,24.90
2018-06-19T11:54:06.235Z,24.90
2018-06-19T11:56:35.440Z,24.90
2018-06-19T11:59:04.674Z,25.00
2018-06-19T12:01:33.977Z,25.00
2018-06-19T12:04:03.161Z,24.90
2018-06-19T12:06:32.347Z,25.00
2018-06-19T12:09:01.619Z,25.10
2018-06-19T12:11:31.993Z,25.20
2018-06-19T12:14:01.402Z,25.30
2018-06-19T12:16:30.596Z,25.20
2018-06-19T12:18:59.818Z,25.20
2018-06-19T12:21:29.229Z,25.20
2018-06-19T12:23:58.440Z,25.10
2018-06-19T12:26:27.561Z,25.10
2018-06-19T12:28:56.922Z,25.00
2018-06-19T12:31:26.239Z,25.00
2018-06-19T12:33:55.313Z,25.10
2018-06-19T12:36:24.597Z,25.10
2018-06-19T12:38:53.782Z,25.20
2018-06-19T12:41:23.302Z,25.40
2018-06-19T12:43:52.469Z,25.50
2018-06-19T12:46:21.597Z,25.60
2018-06-19T12:48:50.932Z,25.40
2018-06-19T12:51:28.920Z,25.40
2018-06-19T12:54:06.967Z,25.50
2018-06-19T12:56:36.463Z,25.80
2018-06-19T12:59:05.686Z,25.80
2018-06-19T13:01:34.986Z,25.80
2018-06-19T13:04:12.960Z,25.70
2018-06-19T13:06:42.161Z,25.70
2018-06-19T13:09:11.511Z,25.60
2018-06-19T13:11:40.766Z,25.70
2018-06-19T13:14:18.675Z,25.50
2018-06-19T13:16:56.520Z,25.50
2018-06-19T13:19:34.391Z,25.50
2018-06-19T13:22:03.694Z,25.40
2018-06-19T13:24:32.942Z,25.30
2018-06-19T13:27:02.255Z,25.20
2018-06-19T13:29:41.934Z,25.30
2018-06-19T13:32:11.148Z,25.50
2018-06-19T13:34:40.410Z,25.70
2018-06-19T13:37:09.577Z,25.70
2018-06-19T13:39:39.761Z,25.80
2018-06-19T13:42:19.064Z,25.80
2018-06-19T13:44:56.354Z,25.80
2018-06-19T13:47:25.541Z,25.70
2018-06-19T13:49:54.679Z,25.60
2018-06-19T13:52:24.412Z,25.60
2018-06-19T13:54:53.755Z,25.70
2018-06-19T13:57:36.740Z,25.60
2018-06-19T14:00:09.231Z,25.80
2018-06-19T14:02:38.604Z,25.90
2018-06-19T14:05:08.553Z,25.90
2018-06-19T14:07:45.689Z,25.90
2018-06-19T14:10:23.586Z,25.80
2018-06-19T14:12:56.510Z,25.60
2018-06-19T14:15:25.900Z,25.70
2018-06-19T14:18:20.861Z,25.80
2018-06-19T14:20:54.799Z,25.80
2018-06-19T14:23:30.337Z,25.80
2018-06-19T14:26:01.483Z,25.70
2018-06-19T14:28:56.831Z,25.60
2018-06-19T14:32:02.175Z,25.60
2018-06-19T15:05:47.388Z,25.60
2018-06-19T15:08:17.040Z,25.60
2018-06-19T15:10:46.610Z,25.40
2018-06-19T15:13:16.090Z,25.40
2018-06-19T15:15:45.291Z,25.30
2018-06-19T15:18:14.640Z,25.30
2018-06-19T15:20:44.030Z,25.20
2018-06-19T15:23:13.521Z,25.10
2018-06-19T15:25:42.873Z,25.20
2018-06-19T15:28:12.137Z,25.10
2018-06-19T15:30:41.612Z,25.20
2018-06-19T15:33:10.680Z,25.20
2018-06-19T15:35:39.913Z,25.20
2018-06-19T15:38:09.418Z,25.20
2018-06-19T15:40:38.672Z,25.20
2018-06-19T15:43:08.042Z,25.20
2018-06-19T15:45:37.539Z,25.20
2018-06-19T15:48:06.856Z,25.10
2018-06-19T15:50:36.073Z,25.00
2018-06-19T15:53:05.335Z,25.10
2018-06-19T15:55:34.845Z,25.10
2018-06-19T15:58:04.006Z,25.00
2018-06-19T16:00:33.084Z,25.00
2018-06-19T16:03:02.258Z,25.00
2018-06-19T16:05:31.487Z,25.00
2018-06-19T16:08:04.978Z,25.00
2018-06-19T16:10:34.128Z,25.00
2018-06-19T16:13:03.765Z,25.00
2018-06-19T16:15:33.240Z,25.10
2018-06-19T16:18:02.469Z,25.00
2018-06-19T16:20:31.766Z,25.10
2018-06-19T16:23:00.901Z,25.10
2018-06-19T16:25:30.440Z,25.00
2018-06-19T16:27:59.777Z,25.00
2018-06-19T16:30:29.085Z,25.00
2018-06-19T16:32:58.433Z,25.00
2018-06-19T16:35:27.653Z,24.90
2018-06-19T16:37:56.778Z,25.00
2018-06-19T16:40:25.887Z,25.10
2018-06-19T16:42:55.843Z,25.10
2018-06-19T16:45:25.193Z,25.10
2018-06-19T16:47:55.920Z,25.00
2018-06-19T16:50:25.127Z,25.10
2018-06-19T16:52:54.354Z,25.10
2018-06-19T16:55:23.616Z,25.00
2018-06-19T16:57:52.791Z,25.10
2018-06-19T17:00:21.950Z,25.10
2018-06-19T17:02:51.115Z,25.10
2018-06-19T17:05:20.427Z,25.10
2018-06-19T17:07:49.625Z,25.00
2018-06-19T17:10:19.784Z,25.10
2018-06-19T17:12:49.077Z,25.10
2018-06-19T17:15:18.301Z,25.10
2018-06-19T17:17:47.604Z,25.10
2018-06-19T17:20:16.812Z,25.00
2018-06-19T17:22:45.991Z,25.00
2018-06-19T17:25:15.078Z,25.00
2018-06-19T17:27:44.222Z,25.00
2018-06-19T17:30:13.531Z,25.00
2018-06-19T17:32:42.783Z,25.00
2018-06-19T17:35:11.855Z,25.00
2018-06-19T17:37:40.997Z,25.00
2018-06-19T17:40:10.078Z,25.10
2018-06-19T17:42:39.218Z,25.20
2018-06-19T17:45:08.369Z,25.30
2018-06-19T17:47:37.525Z,25.20
2018-06-19T17:50:06.751Z,25.30
2018-06-19T17:52:35.945Z,25.30
2018-06-19T17:55:05.173Z,25.30
2018-06-19T17:57:34.368Z,25.30
2018-06-19T18:00:03.513Z,25.30
2018-06-19T18:02:33.046Z,25.30
2018-06-19T18:05:02.277Z,25.30
2018-06-19T18:07:31.543Z,25.30
2018-06-19T18:10:00.767Z,25.30
2018-06-19T18:12:30.039Z,25.30
2018-06-19T18:14:59.269Z,25.40
2018-06-19T18:17:28.499Z,25.30
2018-06-19T18:19:57.663Z,25.30
2018-06-19T18:22:26.823Z,25.30
2018-06-19T18:24:55.922Z,25.30
2018-06-19T18:27:25.158Z,25.40
2018-06-19T18:29:54.246Z,25.30
2018-06-19T18:32:24.760Z,25.30
2018-06-19T18:34:53.889Z,25.30
2018-06-19T18:37:23.054Z,25.30
2018-06-19T18:39:52.307Z,25.30
2018-06-19T18:42:21.558Z,25.40
2018-06-19T18:44:50.757Z,25.30
2018-06-19T18:47:19.862Z,25.30
2018-06-19T18:49:49.080Z,25.30
2018-06-19T18:52:18.207Z,25.30
2018-06-19T18:54:47.802Z,25.30
2018-06-19T18:57:17.174Z,25.30
2018-06-19T18:59:46.414Z,25.30
2018-06-19T19:02:15.760Z,25.30
2018-06-19T19:04:44.930Z,25.30
2018-06-19T19:07:14.187Z,25.30
2018-06-19T19:09:47.613Z,25.30
2018-06-19T19:12:16.727Z,25.30
2018-06-19T19:14:49.956Z,25.30
2018-06-19T19:17:23.686Z,25.30
2018-06-19T19:19:53.213Z,25.30
2018-06-19T19:22:22.321Z,25.30
2018-06-19T19:24:51.517Z,25.30
2018-06-19T19:27:24.973Z,25.30
2018-06-19T19:29:54.129Z,25.30
2018-06-19T19:32:23.263Z,25.20
2018-06-19T19:34:52.657Z,25.30
2018-06-19T19:37:26.659Z,25.30
2018-06-19T19:39:56.073Z,25.30
2018-06-19T19:42:25.243Z,25.30
2018-06-19T19:44:54.365Z,25.30
2018-06-19T19:47:27.617Z,25.20
2018-06-19T19:49:57.079Z,25.20
2018-06-19T19:52:26.111Z,25.20
2018-06-19T19:54:55.149Z,25.20
2018-06-19T19:57:28.316Z,25.20
2018-06-19T19:59:57.740Z,25.20
2018-06-19T20:02:26.935Z,25.20
2018-06-19T20:04:56.120Z,25.20
2018-06-19T20:07:25.345Z,25.20
2018-06-19T20:09:54.717Z,25.20
2018-06-19T20:12:23.809Z,25.20
2018-06-19T20:14:53.168Z,25.20
2018-06-19T20:17:22.224Z,25.20
2018-06-19T20:19:51.298Z,25.20
2018-06-19T20:22:20.390Z,25.20
2018-06-19T20:24:50.729Z,25.20
2018-06-19T20:27:19.915Z,25.20
2018-06-19T20:29:49.280Z,25.10
2018-06-19T20:32:18.638Z,25.10
2018-06-19T20:34:47.844Z,25.10
2018-06-19T20:37:16.961Z,25.10
2018-06-19T20:39:47.106Z,25.20
2018-06-19T20:42:16.350Z,25.20
2018-06-19T20:44:45.614Z,25.20
2018-06-19T20:47:14.817Z,25.10
2018-06-19T20:49:43.853Z,25.10
2018-06-19T20:52:12.824Z,25.10
2018-06-19T20:54:42.085Z,25.10
2018-06-19T20:57:11.228Z,25.10
2018-06-19T20:59:40.347Z,25.10
2018-06-19T21:02:10.543Z,25.10
2018-06-19T21:04:39.862Z,25.10
2018-06-19T21:07:09.172Z,25.10
2018-06-19T21:09:39.256Z,25.10
2018-06-19T21:12:09.121Z,25.10
2018-06-19T21:14:38.315Z,25.10
2018-06-19T21:17:07.598Z,25.10
2018-06-19T21:19:36.912Z,25.10
2018-06-19T21:22:06.116Z,25.10
2018-06-19T21:24:35.274Z,25.10
2018-06-19T21:27:04.570Z,25.10
2018-06-19T21:29:33.871Z,25.10
2018-06-19T21:32:03.089Z,25.10
2018-06-19T21:34:32.287Z,25.10
2018-06-19T21:37:01.475Z,25.10
2018-06-19T21:39:30.668Z,25.10
2018-06-19T21:42:00.077Z,25.10
2018-06-19T21:44:29.057Z,25.10
2018-06-19T21:46:58.338Z,25.10
2018-06-19T21:49:27.563Z,25.10
2018-06-19T21:51:56.974Z,25.10
2018-06-19T21:54:26.160Z,25.10
2018-06-19T21:56:55.418Z,25.00
2018-06-19T21:59:24.579Z,25.10
2018-06-19T22:01:53.801Z,25.10
2018-06-19T22:04:22.957Z,25.10
2018-06-19T22:06:52.183Z,25.10
2018-06-19T22:09:21.333Z,25.10
2018-06-19T22:11:50.575Z,25.00
2018-06-19T22:14:19.702Z,25.00
2018-06-19T22:16:49.077Z,25.00
2018-06-19T22:19:18.229Z,25.00
2018-06-19T22:21:47.457Z,25.00
2018-06-19T22:24:16.708Z,25.10
2018-06-19T22:26:45.976Z,25.00
2018-06-19T22:29:16.020Z,25.00
2018-06-19T22:31:45.106Z,25.00
2018-06-19T22:34:14.319Z,25.00
2018-06-19T22:36:43.621Z,25.00
2018-06-19T22:39:12.619Z,25.00
2018-06-19T22:41:41.706Z,25.00
2018-06-19T22:44:10.923Z,25.00
2018-06-19T22:46:40.216Z,25.00
2018-06-19T22:49:09.487Z,25.00
2018-06-19T22:51:38.569Z,25.00
2018-06-19T22:54:07.613Z,25.00
2018-06-19T22:56:36.741Z,25.00
2018-06-19T22:59:05.776Z,25.00
2018-06-19T23:01:35.081Z,25.00
2018-06-19T23:04:04.354Z,25.00
2018-06-19T23:06:33.451Z,25.00
2018-06-19T23:09:02.621Z,25.00
2018-06-19T23:11:31.814Z,25.00
2018-06-19T23:14:02.194Z,25.00
2018-06-19T23:16:31.303Z,25.00
2018-06-19T23:19:00.352Z,25.00
2018-06-19T23:21:29.573Z,25.00
2018-06-19T23:23:58.724Z,25.00
2018-06-19T23:26:27.783Z,25.00
2018-06-19T23:28:56.996Z,25.00
2018-06-19T23:31:26.303Z,25.00
2018-06-19T23:33:55.791Z,25.00
2018-06-19T23:36:24.909Z,25.00
2018-06-19T23:38:54.035Z,25.00
2018-06-19T23:41:23.166Z,25.00
2018-06-19T23:43:52.545Z,25.00
2018-06-19T23:46:21.708Z,24.90
2018-06-19T23:48:51.273Z,25.00
2018-06-19T23:51:20.477Z,25.00
2018-06-19T23:53:49.614Z,25.00
2018-06-19T23:56:18.855Z,24.90
2018-06-19T23:58:47.974Z,24.90
